Time;durP1;ratioP1;P1;durP2;ratioP2;P2;SDS_P1;SDS_P2;PMS_P1;PMS_P2;Temp;Humidity;BMP_temperature;BMP_pressure;BME280_temperature;BME280_humidity;BME280_pressure;Samples;Min_cycle;Max_cycle;Signal;HPM_P1;HPM_P2
2021/05/19 00:02:14;;;;;;;5.72;2.85;;;;;;;9.48;75.76;101233.81;5051900;28;20095;-65
2021/05/19 00:04:39;;;;;;;7.65;3.53;;;;;;;9.41;75.66;101231.28;5063331;28;20425;-66
2021/05/19 00:07:05;;;;;;;8.43;3.80;;;;;;;9.36;75.36;101233.91;5074239;28;20043;-66
2021/05/19 00:09:32;;;;;;;6.60;3.13;;;;;;;9.39;76.02;101231.28;5067195;28;20063;-65
2021/05/19 00:11:58;;;;;;;6.97;3.25;;;;;;;9.31;75.56;101231.34;5074789;28;20043;-65
2021/05/19 00:14:24;;;;;;;6.10;3.35;;;;;;;9.34;76.32;101228.69;5063419;28;20044;-66
2021/05/19 00:16:50;;;;;;;8.50;3.45;;;;;;;9.34;76.16;101230.44;5053004;28;20045;-65
2021/05/19 00:19:17;;;;;;;9.25;3.67;;;;;;;9.37;76.23;101229.56;5067346;28;20449;-65
2021/05/19 00:21:44;;;;;;;7.32;3.35;;;;;;;9.36;75.94;101227.84;5058926;28;20040;-65
2021/05/19 00:24:10;;;;;;;5.10;3.40;;;;;;;9.33;76.18;101224.38;5059007;28;20045;-66
2021/05/19 00:26:37;;;;;;;7.00;3.25;;;;;;;9.31;76.24;101226.16;5068267;28;20047;-66
2021/05/19 00:29:04;;;;;;;6.40;3.05;;;;;;;9.38;75.84;101220.91;5071169;28;20044;-66
2021/05/19 00:31:33;;;;;;;8.50;3.55;;;;;;;9.27;75.96;101223.59;5071686;28;20064;-65
2021/05/19 00:33:59;;;;;;;7.13;3.78;;;;;;;9.24;75.84;101221.84;5057619;28;20045;-65
2021/05/19 00:36:26;;;;;;;6.90;3.38;;;;;;;9.25;76.24;101223.56;5072045;28;20041;-66
2021/05/19 00:38:54;;;;;;;6.88;3.78;;;;;;;9.20;75.83;101217.56;5052926;28;20136;-65
2021/05/19 00:41:20;;;;;;;7.10;3.53;;;;;;;9.12;76.30;101222.78;5070985;28;20049;-65
2021/05/19 00:43:46;;;;;;;9.48;3.65;;;;;;;9.13;75.89;101232.28;5074360;28;20047;-65
2021/05/19 00:46:12;;;;;;;6.80;3.83;;;;;;;9.12;75.74;101229.72;5058105;28;20056;-66
2021/05/19 00:48:38;;;;;;;7.22;3.10;;;;;;;9.12;75.86;101225.38;5072393;28;20041;-65
2021/05/19 00:51:05;;;;;;;8.23;3.28;;;;;;;9.10;76.25;101227.13;5071099;28;20071;-65
2021/05/19 00:53:32;;;;;;;6.68;3.67;;;;;;;9.07;76.10;101228.88;5071752;28;20048;-65
2021/05/19 00:55:58;;;;;;;7.13;3.35;;;;;;;9.02;76.88;101219.38;5075129;28;20052;-65
2021/05/19 00:58:25;;;;;;;6.28;3.47;;;;;;;8.99;77.31;101227.19;5062816;28;20048;-65
2021/05/19 01:00:51;;;;;;;5.10;3.00;;;;;;;9.04;76.39;101219.38;5065846;28;20044;-62
2021/05/19 01:03:17;;;;;;;8.48;4.18;;;;;;;9.02;76.84;101218.50;5060408;28;20114;-65
2021/05/19 01:05:46;;;;;;;9.38;3.47;;;;;;;9.03;77.04;101215.03;5074746;28;20040;-65
2021/05/19 01:11:05;;;;;;;8.25;4.40;;;;;;;9.11;77.37;101215.00;5073303;28;20060;-65
2021/05/19 01:13:31;;;;;;;6.13;3.63;;;;;;;9.12;77.50;101216.75;5059619;28;20054;-66
2021/05/19 01:15:59;;;;;;;8.95;4.10;;;;;;;9.17;77.34;101218.44;5068247;28;20048;-65
2021/05/19 01:18:25;;;;;;;7.03;4.45;;;;;;;9.22;77.74;101220.13;5069830;28;20143;-65
2021/05/19 01:20:51;;;;;;;9.65;5.00;;;;;;;9.25;77.46;101220.97;5070505;28;20056;-65
2021/05/19 01:23:18;;;;;;;6.47;4.45;;;;;;;9.24;77.45;101216.66;5064364;28;20144;-65
2021/05/19 01:25:44;;;;;;;7.40;4.50;;;;;;;9.28;77.39;101209.72;5067581;28;20090;-65
2021/05/19 01:28:10;;;;;;;9.65;4.40;;;;;;;9.33;76.73;101216.59;5061953;28;20049;-64
2021/05/19 01:30:36;;;;;;;6.88;4.35;;;;;;;9.42;76.74;101212.25;5069347;28;20044;-65
2021/05/19 01:33:02;;;;;;;17.63;4.43;;;;;;;9.44;76.39;101213.94;5059948;28;20052;-65
2021/05/19 01:35:28;;;;;;;7.75;4.90;;;;;;;9.41;76.71;101216.56;5077553;28;20060;-65
2021/05/19 01:37:54;;;;;;;8.02;5.05;;;;;;;9.38;76.62;101210.53;5072016;28;20501;-65
2021/05/19 01:40:22;;;;;;;10.23;4.90;;;;;;;9.33;76.74;101210.56;5056277;28;20059;-65
2021/05/19 01:42:50;;;;;;;8.60;4.82;;;;;;;9.30;76.36;101211.44;5078678;28;20054;-65
2021/05/19 01:45:18;;;;;;;9.68;5.18;;;;;;;9.31;77.11;101207.97;5081315;28;20055;-65
2021/05/19 01:47:46;;;;;;;8.70;4.85;;;;;;;9.30;76.86;101207.97;5060357;28;20064;-64
2021/05/19 01:50:15;;;;;;;7.13;4.78;;;;;;;9.27;77.01;101208.84;5070597;28;20052;-65
2021/05/19 01:52:41;;;;;;;9.48;4.82;;;;;;;9.31;76.90;101205.38;5066410;28;20422;-66
2021/05/19 01:55:09;;;;;;;8.32;4.97;;;;;;;9.31;77.36;101205.38;5070979;28;20040;-67
2021/05/19 01:57:37;;;;;;;10.70;4.68;;;;;;;9.40;76.80;101206.19;5060106;28;20045;-65
2021/05/19 02:00:05;;;;;;;7.40;4.82;;;;;;;9.37;77.14;101207.06;5067431;28;20044;-65
2021/05/19 02:02:31;;;;;;;6.95;4.60;;;;;;;9.36;77.61;101196.69;5063782;28;20044;-66
2021/05/19 02:04:57;;;;;;;7.63;4.60;;;;;;;9.39;77.37;101209.66;5076769;28;20051;-65
2021/05/19 02:07:23;;;;;;;9.27;4.88;;;;;;;9.41;77.56;101205.31;5063427;28;20056;-66
2021/05/19 02:09:49;;;;;;;9.88;5.25;;;;;;;9.38;77.22;101202.72;5057192;28;20049;-65
2021/05/19 02:12:16;;;;;;;10.18;5.57;;;;;;;9.39;77.12;101204.47;5058950;28;20057;-65
2021/05/19 02:14:43;;;;;;;7.32;4.68;;;;;;;9.45;77.50;101207.00;5061379;28;20064;-66
2021/05/19 02:17:09;;;;;;;7.53;5.28;;;;;;;9.47;77.15;101205.25;5063636;28;20049;-65
2021/05/19 02:19:36;;;;;;;8.27;5.53;;;;;;;9.53;77.12;101210.44;5074031;28;20403;-65
2021/05/19 02:22:02;;;;;;;12.40;5.43;;;;;;;9.59;76.77;101202.59;5071746;28;20055;-65
2021/05/19 02:24:28;;;;;;;14.68;6.00;;;;;;;9.55;77.11;101202.63;5068590;28;20045;-66
2021/05/19 02:26:54;;;;;;;8.35;5.18;;;;;;;9.55;77.14;101208.66;5081278;28;20135;-66
2021/05/19 02:29:20;;;;;;;9.48;5.60;;;;;;;9.61;76.23;101213.81;5066526;28;20747;-65
2021/05/19 02:31:47;;;;;;;11.68;5.70;;;;;;;9.61;76.28;101206.03;5064944;28;20052;-65
2021/05/19 02:34:13;;;;;;;12.27;6.00;;;;;;;9.66;76.50;101213.78;5080991;28;20052;-65
2021/05/19 02:36:40;;;;;;;11.07;5.93;;;;;;;9.64;76.46;101205.16;5070309;28;20087;-65
2021/05/19 02:39:08;;;;;;;9.32;6.07;;;;;;;9.64;76.15;101205.16;5057743;28;20067;-65
2021/05/19 02:41:35;;;;;;;9.73;6.07;;;;;;;9.62;77.00;101207.75;5058129;28;20509;-66
2021/05/19 02:44:01;;;;;;;9.88;5.80;;;;;;;9.64;77.19;101207.75;5071380;28;20063;-65
2021/05/19 02:46:27;;;;;;;13.07;6.30;;;;;;;9.56;76.86;101207.78;5079258;28;20041;-65
2021/05/19 02:49:01;;;;;;;9.15;5.45;;;;;;;9.53;77.09;101213.03;5062163;28;20040;-65
2021/05/19 02:51:27;;;;;;;9.30;6.53;;;;;;;9.53;77.12;101212.16;5064510;28;20048;-66
2021/05/19 02:53:53;;;;;;;8.90;5.97;;;;;;;9.49;77.32;101208.72;5075082;28;20070;-65
2021/05/19 02:56:19;;;;;;;10.68;5.55;;;;;;;9.50;77.04;101218.22;5060343;28;20048;-66
2021/05/19 02:58:44;;;;;;;12.07;6.15;;;;;;;9.50;76.74;101218.22;5072603;28;20048;-65
2021/05/19 03:01:11;;;;;;;9.82;6.63;;;;;;;9.46;77.50;101216.53;5068099;28;20056;-65
2021/05/19 03:03:37;;;;;;;9.07;6.00;;;;;;;9.45;77.69;101220.88;5060457;28;20044;-65
2021/05/19 03:06:04;;;;;;;9.20;5.82;;;;;;;9.41;77.08;101215.69;5072278;28;20044;-65
2021/05/19 03:08:30;;;;;;;12.45;6.78;;;;;;;9.38;76.87;101220.91;5072227;28;20053;-65
2021/05/19 03:10:56;;;;;;;10.65;6.85;;;;;;;9.33;76.78;101221.78;5078892;28;20091;-65
2021/05/19 03:13:22;;;;;;;10.90;6.40;;;;;;;9.31;77.72;101218.34;5056764;28;20143;-66
2021/05/19 03:15:48;;;;;;;9.73;6.95;;;;;;;9.33;77.98;101219.19;5083972;22;20052;-64
2021/05/19 03:18:14;;;;;;;13.00;6.10;;;;;;;9.32;77.32;101227.88;5071617;28;20101;-66
2021/05/19 03:20:40;;;;;;;10.57;6.43;;;;;;;9.40;77.64;101225.22;5075927;28;20044;-64
2021/05/19 03:23:07;;;;;;;14.30;7.40;;;;;;;9.37;77.36;101233.03;5084283;28;20044;-66
2021/05/19 03:25:33;;;;;;;10.13;6.53;;;;;;;9.44;77.26;101226.03;5081456;28;20066;-67
2021/05/19 03:27:59;;;;;;;11.65;6.97;;;;;;;9.44;76.91;101226.03;5086890;28;20528;-65
2021/05/19 03:30:25;;;;;;;9.63;6.50;;;;;;;9.43;76.47;101230.38;5084187;28;20051;-65
2021/05/19 03:32:51;;;;;;;10.20;6.97;;;;;;;9.40;77.34;101224.34;5078778;28;20044;-66
2021/05/19 03:35:17;;;;;;;10.27;7.00;;;;;;;9.39;77.70;101227.81;5088348;28;20516;-67
2021/05/19 03:37:44;;;;;;;11.95;7.30;;;;;;;9.36;77.13;101223.53;5085120;28;20048;-66
2021/05/19 03:40:13;;;;;;;10.85;7.63;;;;;;;9.41;77.36;101226.09;5081935;28;20044;-67
2021/05/19 03:42:40;;;;;;;11.43;7.57;;;;;;;9.40;77.28;101222.63;5078869;28;20042;-67
2021/05/19 03:45:08;;;;;;;12.35;7.93;;;;;;;9.40;77.54;101226.97;5082146;28;20455;-67
2021/05/19 03:47:34;;;;;;;12.68;8.88;;;;;;;9.34;78.20;101218.31;5078589;28;20296;-68
2021/05/19 03:50:00;;;;;;;10.95;8.95;;;;;;;9.44;77.63;101226.94;5076032;28;20044;-66
2021/05/19 03:52:26;;;;;;;13.05;8.40;;;;;;;9.43;77.84;101229.53;5082207;28;20474;-64
2021/05/19 03:54:52;;;;;;;13.02;9.55;;;;;;;9.45;78.03;101225.19;5085048;28;20051;-66
2021/05/19 03:57:19;;;;;;;10.93;8.82;;;;;;;9.42;78.21;101230.41;5080284;28;20516;-65
2021/05/19 03:59:45;;;;;;;14.43;9.93;;;;;;;9.40;77.85;101229.56;5083100;28;20484;-66
2021/05/19 04:02:11;;;;;;;12.20;9.80;;;;;;;9.37;78.09;101230.44;5075787;28;20139;-63
2021/05/19 04:04:37;;;;;;;12.27;9.27;;;;;;;9.32;78.54;101225.28;5087989;28;20048;-66
2021/05/19 04:07:03;;;;;;;13.93;10.48;;;;;;;9.39;78.65;101233.03;5091619;28;20047;-66
2021/05/19 04:09:28;;;;;;;13.70;10.32;;;;;;;9.43;78.31;101234.75;5080093;28;20493;-66
2021/05/19 04:11:55;;;;;;;12.50;10.05;;;;;;;9.49;77.86;101234.69;5092410;28;20058;-67
2021/05/19 04:14:21;;;;;;;11.18;9.35;;;;;;;9.46;77.93;101238.16;5088370;28;20050;-67
2021/05/19 04:16:47;;;;;;;11.45;9.40;;;;;;;9.42;78.17;101238.19;5084864;28;20048;-65
2021/05/19 04:19:14;;;;;;;12.00;9.88;;;;;;;9.39;78.01;101239.06;5088717;28;20048;-68
2021/05/19 04:21:39;;;;;;;12.45;9.50;;;;;;;9.42;77.87;101238.19;5093281;28;20055;-67
2021/05/19 04:24:06;;;;;;;12.00;9.90;;;;;;;9.46;78.17;101238.16;5079671;28;20045;-67
2021/05/19 04:26:32;;;;;;;13.25;9.85;;;;;;;9.42;77.87;101240.81;5083489;28;20048;-67
2021/05/19 04:28:58;;;;;;;13.48;10.13;;;;;;;9.42;78.30;101243.41;5094182;28;20088;-69
2021/05/19 04:31:25;;;;;;;13.63;10.27;;;;;;;9.45;78.54;101243.34;5080851;28;20052;-69
2021/05/19 04:33:51;;;;;;;14.63;11.02;;;;;;;9.49;78.56;101250.25;5090814;28;20518;-72
2021/05/19 04:36:17;;;;;;;12.15;10.85;;;;;;;9.59;78.02;101248.44;5088757;28;20054;-68
2021/05/19 04:38:43;;;;;;;11.80;9.85;;;;;;;9.74;78.29;101250.97;5088444;28;20056;-66
2021/05/19 04:41:09;;;;;;;12.63;10.55;;;;;;;9.99;77.51;101257.69;5090692;28;20602;-69
2021/05/19 04:43:35;;;;;;;13.93;10.70;;;;;;;10.23;76.63;101249.66;5092661;28;20044;-67
2021/05/19 04:46:01;;;;;;;11.88;9.80;;;;;;;10.45;75.71;101248.63;5093881;28;20044;-67
2021/05/19 04:48:29;;;;;;;14.52;10.32;;;;;;;10.74;75.04;101261.31;5081501;28;20171;-68
2021/05/19 04:50:55;;;;;;;12.55;9.75;;;;;;;10.99;73.63;101263.63;5097782;28;20097;-67
2021/05/19 04:53:22;;;;;;;13.30;9.95;;;;;;;11.01;73.20;101260.13;5092525;28;20637;-68
2021/05/19 04:55:48;;;;;;;11.90;9.75;;;;;;;10.98;73.26;101273.16;5091743;28;20052;-69
2021/05/19 04:58:14;;;;;;;15.02;10.52;;;;;;;10.94;73.77;101273.22;5095030;28;20072;-68
2021/05/19 05:00:40;;;;;;;12.85;10.40;;;;;;;11.07;73.09;101263.53;5096606;28;20047;-65
2021/05/19 05:03:06;;;;;;;12.95;10.57;;;;;;;11.11;72.98;101265.22;5095895;28;20043;-68
2021/05/19 05:05:33;;;;;;;13.82;10.43;;;;;;;11.06;73.04;101265.25;5084668;28;20074;-68
2021/05/19 05:07:59;;;;;;;15.02;11.07;;;;;;;10.96;73.41;101271.47;5096097;28;20419;-69
2021/05/19 05:10:25;;;;;;;13.27;10.18;;;;;;;10.95;73.46;101264.53;5094308;28;20048;-67
2021/05/19 05:12:51;;;;;;;16.02;10.23;;;;;;;10.92;74.41;101268.03;5096132;28;20813;-67
2021/05/19 05:15:18;;;;;;;15.40;10.77;;;;;;;10.92;74.26;101264.59;5085787;28;20482;-67
2021/05/19 05:17:44;;;;;;;13.85;10.75;;;;;;;10.95;73.82;101269.75;5092874;28;20058;-67
2021/05/19 05:20:12;;;;;;;14.30;10.30;;;;;;;11.02;74.10;101264.44;5090610;28;20062;-67
2021/05/19 05:22:38;;;;;;;14.77;10.95;;;;;;;10.97;74.09;101260.19;5096331;28;20052;-69
2021/05/19 05:25:06;;;;;;;14.25;10.82;;;;;;;10.95;73.73;101262.81;5092289;28;20055;-67
2021/05/19 05:27:32;;;;;;;16.90;10.35;;;;;;;10.96;73.80;101264.53;5095275;28;20040;-67
2021/05/19 05:29:58;;;;;;;15.73;11.15;;;;;;;10.96;74.31;101266.25;5098266;28;20436;-67
2021/05/19 05:32:24;;;;;;;15.02;11.05;;;;;;;11.08;73.42;101263.50;5092894;28;20097;-67
2021/05/19 05:34:51;;;;;;;12.70;10.13;;;;;;;11.09;73.85;101269.56;5085992;28;20116;-67
2021/05/19 05:37:18;;;;;;;15.88;11.02;;;;;;;11.12;73.64;101266.94;5095776;28;20058;-68
2021/05/19 05:39:45;;;;;;;13.73;10.90;;;;;;;11.13;74.16;101264.28;5098083;28;20048;-65
2021/05/19 05:42:11;;;;;;;15.15;10.90;;;;;;;11.14;74.00;101260.81;5093594;28;20052;-66
2021/05/19 05:44:37;;;;;;;14.65;10.23;;;;;;;11.20;73.23;101265.97;5091404;28;20542;-67
2021/05/19 05:47:03;;;;;;;15.50;10.30;;;;;;;11.31;73.29;101267.56;5093089;28;20113;-68
2021/05/19 05:49:28;;;;;;;16.02;10.45;;;;;;;11.26;73.41;101259.81;5093906;28;20501;-66
2021/05/19 05:51:54;;;;;;;16.42;9.75;;;;;;;11.34;73.07;101264.91;5089030;28;20075;-67
2021/05/19 05:54:20;;;;;;;18.00;11.00;;;;;;;11.30;73.13;101276.25;5091951;28;20535;-66
2021/05/19 05:56:47;;;;;;;18.92;10.00;;;;;;;11.29;73.29;101269.31;5093466;28;20064;-67
2021/05/19 05:59:13;;;;;;;18.75;11.52;;;;;;;11.32;73.29;101274.50;5091326;28;20048;-67
2021/05/19 06:01:39;;;;;;;15.75;9.73;;;;;;;11.39;72.82;101277.84;5096552;28;20124;-68
2021/05/19 06:04:05;;;;;;;12.45;9.43;;;;;;;11.42;72.32;101273.47;5100887;28;20520;-68
2021/05/19 06:06:31;;;;;;;20.50;10.30;;;;;;;11.42;72.94;101276.09;5098524;28;20051;-67
2021/05/19 06:08:58;;;;;;;15.77;9.88;;;;;;;11.51;74.33;101270.75;5103967;28;20051;-67
2021/05/19 06:11:24;;;;;;;16.65;9.60;;;;;;;11.58;73.00;101270.66;5089289;28;20055;-67
2021/05/19 06:13:50;;;;;;;15.88;9.70;;;;;;;11.69;71.92;101268.75;5094570;28;20044;-67
2021/05/19 06:16:16;;;;;;;16.80;10.50;;;;;;;11.81;73.13;101278.97;5090966;28;20077;-67
2021/05/19 06:18:42;;;;;;;15.25;9.98;;;;;;;12.03;71.46;101272.59;5085321;28;20067;-68
2021/05/19 06:21:08;;;;;;;16.05;9.73;;;;;;;12.27;71.16;101271.31;5090510;28;20110;-65
2021/05/19 06:23:34;;;;;;;18.75;9.70;;;;;;;12.57;69.59;101276.84;5095861;28;20079;-67
2021/05/19 06:26:00;;;;;;;16.90;8.75;;;;;;;12.94;68.83;101276.13;5095047;28;20503;-67
2021/05/19 06:28:26;;;;;;;14.00;8.43;;;;;;;13.38;68.04;101276.94;5088465;28;20047;-67
2021/05/19 06:30:55;;;;;;;14.57;8.38;;;;;;;13.78;66.85;101279.53;5092918;28;20096;-64
2021/05/19 06:33:21;;;;;;;17.42;9.77;;;;;;;13.96;65.00;101279.09;5081468;28;20147;-68
2021/05/19 06:35:47;;;;;;;13.50;7.80;;;;;;;13.91;65.83;101283.59;5089146;28;20517;-68
2021/05/19 06:38:13;;;;;;;15.48;7.97;;;;;;;13.74;65.59;101284.00;5087178;28;20048;-67
2021/05/19 06:40:39;;;;;;;15.45;7.78;;;;;;;13.63;65.89;101286.84;5093041;28;20079;-66
2021/05/19 06:43:05;;;;;;;15.63;7.80;;;;;;;13.38;65.83;101284.78;5098012;28;20074;-68
2021/05/19 06:45:31;;;;;;;18.65;7.65;;;;;;;13.34;65.53;101283.09;5097074;28;20048;-68
2021/05/19 06:47:58;;;;;;;15.25;7.22;;;;;;;13.32;66.67;101284.03;5084732;28;20048;-69
2021/05/19 06:50:24;;;;;;;14.52;7.63;;;;;;;13.34;66.87;101284.88;5098314;28;20067;-67
2021/05/19 06:52:50;;;;;;;18.30;8.00;;;;;;;13.32;66.22;101287.53;5096930;28;20043;-67
2021/05/19 06:55:18;;;;;;;16.88;8.30;;;;;;;13.27;67.24;101288.53;5092260;28;20048;-67
2021/05/19 06:57:43;;;;;;;15.63;8.13;;;;;;;13.34;66.07;101288.31;5081272;28;20071;-67
2021/05/19 07:00:11;;;;;;;15.10;8.95;;;;;;;13.43;66.36;101284.69;5091022;28;20046;-68
2021/05/19 07:02:38;;;;;;;18.73;9.10;;;;;;;13.48;66.34;101295.88;5096310;28;20052;-66
2021/05/19 07:05:06;;;;;;;21.58;7.93;;;;;;;13.56;65.90;101290.50;5091363;28;20093;-66
2021/05/19 07:07:32;;;;;;;16.25;7.80;;;;;;;13.44;65.95;101298.59;5088445;28;20056;-69
2021/05/19 07:09:58;;;;;;;15.18;7.07;;;;;;;13.48;65.59;101303.72;5086191;28;20488;-66
2021/05/19 07:12:24;;;;;;;15.20;8.40;;;;;;;13.53;65.71;101301.91;5086259;28;20154;-67
2021/05/19 07:14:52;;;;;;;14.52;7.32;;;;;;;13.47;65.47;101299.44;5082807;28;20053;-67
2021/05/19 07:17:18;;;;;;;11.98;7.30;;;;;;;13.41;66.17;101298.69;5088454;28;20044;-67
2021/05/19 07:19:44;;;;;;;14.73;6.90;;;;;;;13.43;65.50;101291.66;5100691;28;20048;-67
2021/05/19 07:22:11;;;;;;;14.70;6.70;;;;;;;13.44;66.22;101302.09;5092865;28;21918;-66
2021/05/19 07:24:37;;;;;;;19.38;8.20;;;;;;;13.61;66.76;101293.00;5091477;28;20501;-65
2021/05/19 07:27:03;;;;;;;14.75;6.53;;;;;;;13.75;66.14;101295.28;5092122;28;20044;-67
2021/05/19 07:29:29;;;;;;;15.98;5.63;;;;;;;13.88;65.04;101296.75;5091000;28;20056;-72
2021/05/19 07:31:56;;;;;;;17.05;6.60;;;;;;;13.98;63.73;101290.38;5090075;28;20048;-67
2021/05/19 07:34:22;;;;;;;17.00;7.00;;;;;;;14.07;64.53;101298.91;5084280;28;20045;-66
2021/05/19 07:36:48;;;;;;;16.02;7.50;;;;;;;14.18;63.30;101307.34;5089169;28;20047;-68
2021/05/19 07:39:15;;;;;;;16.17;7.78;;;;;;;14.22;63.24;101302.88;5083544;28;20513;-68
2021/05/19 07:41:41;;;;;;;13.70;6.82;;;;;;;14.26;64.40;101304.53;5089316;28;20489;-66
2021/05/19 07:44:08;;;;;;;16.52;8.05;;;;;;;14.28;63.55;101308.81;5089592;28;20101;-64
2021/05/19 07:46:34;;;;;;;14.10;6.40;;;;;;;14.25;64.11;101298.44;5086169;28;20101;-62
2021/05/19 07:49:01;;;;;;;19.08;8.68;;;;;;;14.34;64.01;101302.56;5094021;28;20044;-65
2021/05/19 07:51:27;;;;;;;20.58;7.85;;;;;;;14.49;63.75;101298.69;5095171;28;20095;-66
2021/05/19 07:53:54;;;;;;;20.83;7.97;;;;;;;14.48;64.56;101307.44;5092102;28;20052;-68
2021/05/19 07:56:23;;;;;;;15.65;6.85;;;;;;;14.58;63.66;101308.03;5091081;28;20413;-67
2021/05/19 07:58:52;;;;;;;18.60;6.43;;;;;;;14.66;62.44;101308.72;5085478;28;20400;-66
2021/05/19 08:01:42;;;;;;;17.20;5.93;;;;;;;14.40;63.01;101306.78;5091534;28;20043;-67
2021/05/19 08:04:09;;;;;;;14.05;6.57;;;;;;;14.27;63.98;101311.50;5094334;28;20051;-69
2021/05/19 08:06:36;;;;;;;17.08;7.20;;;;;;;14.26;63.58;101310.63;5096937;28;20089;-67
2021/05/19 08:09:03;;;;;;;12.80;6.03;;;;;;;14.15;64.07;101312.63;5088085;28;20047;-66
2021/05/19 08:11:29;;;;;;;12.02;5.88;;;;;;;14.27;63.71;101301.03;5086757;28;20421;-67
2021/05/19 08:13:56;;;;;;;13.00;5.65;;;;;;;14.15;63.88;101305.66;5086212;28;20105;-66
2021/05/19 08:16:22;;;;;;;15.75;5.88;;;;;;;14.24;64.02;101307.19;5093120;28;20090;-66
2021/05/19 08:18:48;;;;;;;14.65;5.57;;;;;;;14.18;63.43;101311.69;5088835;28;20126;-68
2021/05/19 08:21:14;;;;;;;13.18;6.00;;;;;;;14.21;63.97;101312.50;5093837;28;20048;-68
2021/05/19 08:23:40;;;;;;;18.27;6.25;;;;;;;14.10;64.02;101311.91;5088901;28;20048;-67
2021/05/19 08:26:06;;;;;;;17.00;6.50;;;;;;;14.02;63.52;101303.41;5088251;28;20051;-66
2021/05/19 08:28:33;;;;;;;16.08;6.00;;;;;;;13.80;64.32;101309.13;5083223;28;20114;-67
2021/05/19 08:31:00;;;;;;;13.85;5.47;;;;;;;13.73;64.57;101304.94;5085989;28;20048;-68
2021/05/19 08:33:25;;;;;;;13.55;5.43;;;;;;;13.51;64.63;101305.44;5084788;28;20048;-67
2021/05/19 08:35:51;;;;;;;11.10;4.82;;;;;;;13.76;63.89;101305.75;5082009;28;20051;-69
2021/05/19 08:38:17;;;;;;;13.40;4.40;;;;;;;14.03;63.22;101294.63;5089519;28;20092;-69
2021/05/19 08:40:43;;;;;;;10.70;4.70;;;;;;;14.09;62.63;101302.34;5086867;28;20084;-66
2021/05/19 08:43:11;;;;;;;13.45;4.82;;;;;;;14.22;61.75;101300.28;5091806;28;20055;-70
2021/05/19 08:45:38;;;;;;;9.48;4.10;;;;;;;14.37;62.43;101306.88;5098140;28;20052;-66
2021/05/19 08:48:07;;;;;;;15.35;4.30;;;;;;;14.16;61.69;101311.75;5099027;28;20070;-68
2021/05/19 08:50:34;;;;;;;11.63;3.60;;;;;;;13.89;63.01;101303.69;5098305;28;20059;-67
2021/05/19 08:53:00;;;;;;;13.80;4.43;;;;;;;13.65;64.00;101315.59;5097407;28;20097;-67
2021/05/19 08:55:28;;;;;;;11.25;4.45;;;;;;;13.67;63.89;101308.56;5096750;28;20048;-67
2021/05/19 08:57:54;;;;;;;14.85;4.35;;;;;;;13.75;63.81;101304.03;5099824;28;20047;-68
2021/05/19 09:00:21;;;;;;;16.70;4.25;;;;;;;13.71;64.29;101309.34;5094182;28;20049;-63
2021/05/19 09:03:07;;;;;;;15.77;4.75;;;;;;;13.56;64.50;101314.03;5101500;28;20065;-67
2021/05/19 09:05:34;;;;;;;15.45;4.63;;;;;;;13.53;64.16;101309.72;5101842;28;20127;-67
2021/05/19 09:08:04;;;;;;;20.63;5.85;;;;;;;13.61;65.65;101313.91;5099371;28;20044;-68
2021/05/19 09:10:31;;;;;;;13.77;4.78;;;;;;;13.61;64.06;101308.69;5093800;28;20512;-65
2021/05/19 09:12:57;;;;;;;12.93;4.30;;;;;;;13.62;64.91;101302.56;5104529;28;20047;-67
2021/05/19 09:15:24;;;;;;;16.50;4.43;;;;;;;13.80;64.27;101302.13;5099431;28;20064;-67
2021/05/19 09:17:56;;;;;;;10.90;4.20;;;;;;;13.97;64.35;101299.13;5103259;28;20059;-67
2021/05/19 09:20:23;;;;;;;10.40;3.78;;;;;;;14.35;62.72;101295.56;5098643;28;20052;-67
2021/05/19 09:23:02;;;;;;;16.40;3.58;;;;;;;14.46;62.03;101297.03;5104141;28;20092;-68
2021/05/19 09:25:30;;;;;;;14.27;3.58;;;;;;;14.64;61.57;101293.94;5101824;28;20063;-68
2021/05/19 09:27:59;;;;;;;11.23;3.03;;;;;;;14.95;60.92;101291.38;5090766;28;20044;-67
2021/05/19 09:30:36;;;;;;;13.20;3.50;;;;;;;15.15;60.16;101284.69;5103306;28;20052;-68
2021/05/19 09:33:10;;;;;;;10.00;2.75;;;;;;;15.35;59.06;101290.19;5086864;28;20052;-68
2021/05/19 09:35:37;;;;;;;13.10;3.10;;;;;;;15.32;59.91;101292.06;5094090;28;20052;-68
2021/05/19 09:38:04;;;;;;;9.13;2.90;;;;;;;15.58;58.84;101287.75;5102139;28;20048;-68
2021/05/19 09:40:30;;;;;;;14.07;3.72;;;;;;;15.60;59.35;101292.03;5102432;28;20052;-67
2021/05/19 09:42:59;;;;;;;10.63;3.40;;;;;;;15.64;59.68;101279.69;5096526;28;20047;-69
2021/05/19 09:45:27;;;;;;;18.10;3.80;;;;;;;15.94;58.48;101283.13;5096393;28;20130;-64
2021/05/19 09:47:55;;;;;;;11.30;3.00;;;;;;;16.15;57.87;101278.06;5099043;28;20131;-68
2021/05/19 09:50:23;;;;;;;11.68;3.03;;;;;;;16.25;56.43;101274.22;5103466;28;20055;-69
2021/05/19 09:53:07;;;;;;;13.13;3.97;;;;;;;16.33;55.91;101271.31;5097592;28;20057;-68
2021/05/19 09:55:34;;;;;;;7.18;2.92;;;;;;;16.48;56.58;101276.03;5099515;28;20040;-67
2021/05/19 09:58:00;;;;;;;12.77;2.90;;;;;;;16.55;55.95;101275.81;5100417;28;20044;-65
2021/05/19 10:00:28;;;;;;;9.82;2.60;;;;;;;16.63;54.02;101271.13;5097149;28;20096;-67
2021/05/19 10:02:55;;;;;;;11.57;3.42;;;;;;;16.54;55.35;101276.72;5099485;28;20059;-68
2021/05/19 10:05:24;;;;;;;9.90;2.83;;;;;;;16.75;56.31;101281.22;5103316;28;20172;-69
2021/05/19 10:07:53;;;;;;;8.73;2.65;;;;;;;16.39;53.55;101280.75;5103245;28;20043;-68
2021/05/19 10:10:19;;;;;;;8.98;2.60;;;;;;;16.01;55.00;101279.38;5090344;28;20395;-68
2021/05/19 10:12:46;;;;;;;11.13;2.80;;;;;;;16.10;55.53;101270.34;5102518;28;20404;-68
2021/05/19 10:15:16;;;;;;;7.50;2.67;;;;;;;16.23;54.94;101275.16;5096618;28;20411;-67
2021/05/19 10:17:45;;;;;;;13.63;2.70;;;;;;;16.30;54.51;101272.28;5091551;28;20067;-68
2021/05/19 10:20:14;;;;;;;11.50;3.65;;;;;;;16.24;53.84;101269.00;5111787;22;20056;-65
2021/05/19 10:22:44;;;;;;;10.65;3.67;;;;;;;16.12;55.05;101258.03;5087066;28;20058;-65
2021/05/19 10:25:18;;;;;;;12.90;3.17;;;;;;;16.03;54.33;101260.97;5088210;28;20084;-66
2021/05/19 10:27:51;;;;;;;9.57;2.63;;;;;;;15.91;57.42;101264.84;5104543;28;20088;-66
2021/05/19 10:30:33;;;;;;;8.50;3.08;;;;;;;16.18;55.40;101256.94;5091801;28;20052;-66
2021/05/19 10:32:59;;;;;;;10.88;2.78;;;;;;;16.42;57.41;101252.59;5094404;28;20042;-66
2021/05/19 10:35:30;;;;;;;10.30;2.13;;;;;;;16.75;53.74;101246.22;5102204;28;20076;-67
2021/05/19 10:37:56;;;;;;;8.23;2.90;;;;;;;16.96;53.21;101249.00;5102287;28;20272;-68
2021/05/19 10:40:34;;;;;;;8.90;2.38;;;;;;;16.69;51.42;101251.66;5103513;28;20383;-65
2021/05/19 10:43:04;;;;;;;11.98;2.13;;;;;;;16.35;52.32;101240.63;5096919;28;20050;-65
2021/05/19 10:45:30;;;;;;;8.20;2.30;;;;;;;16.05;54.21;101237.31;5100793;28;20079;-65
2021/05/19 10:47:56;;;;;;;8.50;2.83;;;;;;;16.05;52.78;101245.19;5098672;28;20439;-65
2021/05/19 10:50:34;;;;;;;5.70;2.25;;;;;;;16.00;54.58;101232.22;5094849;28;20058;-65
2021/05/19 10:58:36;;;;;;;6.20;1.75;;;;;;;16.45;54.00;101238.53;5092676;28;20091;-66
2021/05/19 11:01:04;;;;;;;7.65;2.53;;;;;;;16.41;54.20;101232.53;5102133;28;20051;-66
2021/05/19 11:03:30;;;;;;;11.57;2.25;;;;;;;16.17;54.14;101229.88;5088244;28;20048;-66
2021/05/19 11:06:10;;;;;;;9.98;1.77;;;;;;;16.19;52.87;101231.59;5086800;28;20048;-66
2021/05/19 11:08:38;;;;;;;9.20;1.67;;;;;;;16.15;53.50;101233.47;5097670;28;20039;-65
2021/05/19 11:11:22;;;;;;;5.30;1.65;;;;;;;16.19;53.92;101221.94;5095896;28;20131;-66
2021/05/19 11:14:11;;;;;;;9.77;1.90;;;;;;;16.28;54.91;101236.50;5096117;28;20120;-66
2021/05/19 11:16:52;;;;;;;7.57;2.10;;;;;;;16.47;52.90;101234.06;5094384;28;20064;-66
2021/05/19 11:19:25;;;;;;;5.22;1.55;;;;;;;16.63;52.82;101227.38;5084801;28;20044;-66
2021/05/19 11:22:00;;;;;;;7.40;1.60;;;;;;;16.75;52.65;101220.78;5086298;28;20055;-67
2021/05/19 11:24:27;;;;;;;9.77;1.73;;;;;;;16.83;49.03;101220.50;5098113;28;20047;-67
2021/05/19 11:26:54;;;;;;;9.90;2.72;;;;;;;16.81;50.52;101216.22;5089688;28;20063;-66
2021/05/19 11:29:21;;;;;;;6.25;1.48;;;;;;;16.77;51.82;101211.09;5085273;28;20056;-67
2021/05/19 11:31:50;;;;;;;7.30;1.83;;;;;;;16.72;51.23;101213.00;5090129;28;20417;-66